createdAt,value
2022-11-27T00:00:48.149Z,30.85
2022-11-27T00:03:14.995Z,31.38
2022-11-27T00:05:50.843Z,23.35
2022-11-27T00:08:17.696Z,30.08
2022-11-27T00:10:44.808Z,29.33
2022-11-27T00:13:11.614Z,33.70
2022-11-27T00:15:38.543Z,27.52
2022-11-27T00:18:05.370Z,30.02
2022-11-27T00:20:32.541Z,29.13
2022-11-27T00:22:59.300Z,30.55
2022-11-27T00:25:26.134Z,26.58
2022-11-27T00:27:52.912Z,24.40
2022-11-27T00:30:19.832Z,30.70
2022-11-27T00:32:46.630Z,23.45
2022-11-27T00:35:13.518Z,25.40
2022-11-27T00:37:40.324Z,27.90
2022-11-27T00:40:07.738Z,27.65
2022-11-27T00:42:34.467Z,27.75
2022-11-27T00:45:01.676Z,28.00
2022-11-27T00:47:28.475Z,29.50
2022-11-27T00:49:55.292Z,28.38
2022-11-27T00:52:22.198Z,24.77
2022-11-27T00:54:48.986Z,26.90
2022-11-27T00:57:15.690Z,25.13
2022-11-27T00:59:42.425Z,31.52
2022-11-27T01:02:09.434Z,26.08
2022-11-27T01:04:36.275Z,26.67
2022-11-27T01:07:03.154Z,26.10
2022-11-27T01:09:29.979Z,28.17
2022-11-27T01:11:56.840Z,23.92
2022-11-27T01:14:23.630Z,35.30
2022-11-27T01:16:50.548Z,32.70
2022-11-27T01:19:17.370Z,38.42
2022-11-27T01:21:44.249Z,36.20
2022-11-27T01:24:13.566Z,35.03
2022-11-27T01:26:40.673Z,28.33
2022-11-27T01:29:07.689Z,26.70
2022-11-27T01:31:35.406Z,25.25
2022-11-27T01:34:05.292Z,25.08
2022-11-27T01:36:33.407Z,28.80
2022-11-27T01:39:01.120Z,25.73
2022-11-27T01:41:37.047Z,28.45
2022-11-27T01:44:25.917Z,28.05
2022-11-27T01:47:15.224Z,26.88
2022-11-27T01:49:50.547Z,26.48
2022-11-27T01:52:22.107Z,21.02
2022-11-27T01:54:56.680Z,26.67
2022-11-27T01:57:31.005Z,26.42
2022-11-27T02:00:00.612Z,31.67
2022-11-27T02:02:27.607Z,23.02
2022-11-27T02:04:58.001Z,26.27
2022-11-27T02:07:25.111Z,23.63
2022-11-27T02:09:51.988Z,20.70
2022-11-27T02:12:56.910Z,18.00
2022-11-27T02:15:31.212Z,14.63
2022-11-27T02:18:10.004Z,15.77
2022-11-27T02:21:04.579Z,15.85
2022-11-27T02:23:49.321Z,15.43
2022-11-27T02:26:37.452Z,15.10
2022-11-27T02:29:10.309Z,18.40
2022-11-27T02:32:01.538Z,12.65
2022-11-27T02:34:39.529Z,16.45
2022-11-27T02:37:15.839Z,14.48
2022-11-27T02:40:09.408Z,12.80
2022-11-27T02:42:40.624Z,14.50
2022-11-27T02:45:14.329Z,16.35
2022-11-27T02:47:43.973Z,19.15
2022-11-27T02:50:15.269Z,15.15
2022-11-27T02:52:43.450Z,22.40
2022-11-27T02:55:16.168Z,16.23
2022-11-27T02:57:45.040Z,14.05
2022-11-27T03:00:12.942Z,11.73
2022-11-27T03:02:46.458Z,15.85
2022-11-27T03:05:19.034Z,15.93
2022-11-27T03:08:47.520Z,9.98
2022-11-27T03:11:15.517Z,14.43
2022-11-27T03:13:47.316Z,8.98
2022-11-27T03:16:42.759Z,14.30
2022-11-27T03:19:26.956Z,11.43
2022-11-27T03:21:57.490Z,9.13
2022-11-27T03:24:25.263Z,10.65
2022-11-27T03:26:52.648Z,12.05
2022-11-27T03:29:24.776Z,18.92
2022-11-27T03:31:52.066Z,13.40
2022-11-27T03:34:19.112Z,13.55
2022-11-27T03:36:46.425Z,11.77
2022-11-27T03:39:13.830Z,14.35
2022-11-27T03:42:00.009Z,12.77
2022-11-27T03:44:53.701Z,14.73
2022-11-27T03:47:39.525Z,13.63
2022-11-27T03:50:34.504Z,14.90
2022-11-27T03:53:33.380Z,20.27
2022-11-27T03:56:20.493Z,16.92
2022-11-27T03:59:10.302Z,17.48
2022-11-27T04:01:37.611Z,17.23
2022-11-27T04:04:04.878Z,14.68
2022-11-27T04:06:31.689Z,13.25
2022-11-27T04:08:58.578Z,15.07
2022-11-27T04:11:25.599Z,15.80
2022-11-27T04:13:52.458Z,17.25
2022-11-27T04:16:19.939Z,15.05
2022-11-27T04:18:46.784Z,17.15
2022-11-27T04:21:13.579Z,16.88
2022-11-27T04:23:40.846Z,20.45
2022-11-27T04:26:07.672Z,19.05
2022-11-27T04:28:34.609Z,16.95
2022-11-27T04:31:01.633Z,16.42
2022-11-27T04:33:28.484Z,22.00
2022-11-27T04:35:55.377Z,18.00
2022-11-27T04:38:23.685Z,18.58
2022-11-27T04:40:53.477Z,24.08
2022-11-27T04:43:20.421Z,28.20
2022-11-27T04:45:47.337Z,41.25
2022-11-27T04:48:14.175Z,28.08
2022-11-27T04:50:40.959Z,22.23
2022-11-27T04:53:07.783Z,19.90
2022-11-27T04:55:35.364Z,24.48
2022-11-27T04:58:02.214Z,22.08
2022-11-27T05:00:29.073Z,21.80
2022-11-27T05:02:56.104Z,26.40
2022-11-27T05:05:23.018Z,29.23
2022-11-27T05:07:49.957Z,29.10
2022-11-27T05:10:16.927Z,29.30
2022-11-27T05:12:43.931Z,27.23
2022-11-27T05:15:10.876Z,26.17
2022-11-27T05:17:37.704Z,27.67
2022-11-27T05:20:04.990Z,33.88
2022-11-27T05:22:32.196Z,27.55
2022-11-27T05:24:59.022Z,28.88
2022-11-27T05:27:25.925Z,32.50
2022-11-27T05:29:52.962Z,27.77
2022-11-27T05:32:19.858Z,28.63
2022-11-27T05:34:48.646Z,28.58
2022-11-27T05:37:19.508Z,25.92
2022-11-27T05:39:47.008Z,22.52
2022-11-27T05:42:14.067Z,25.00
2022-11-27T05:44:41.022Z,22.48
2022-11-27T05:47:08.135Z,30.90
2022-11-27T05:49:35.423Z,20.42
2022-11-27T05:52:02.358Z,18.55
2022-11-27T05:54:29.167Z,22.75
2022-11-27T05:56:55.948Z,18.48
2022-11-27T05:59:22.735Z,18.15
2022-11-27T06:01:50.144Z,18.85
2022-11-27T06:04:17.587Z,16.92
2022-11-27T06:06:44.726Z,18.85
2022-11-27T06:09:13.506Z,20.30
2022-11-27T06:11:41.002Z,23.45
2022-11-27T06:14:09.419Z,21.50
2022-11-27T06:16:37.391Z,24.45
2022-11-27T06:19:04.427Z,23.73
2022-11-27T06:21:31.329Z,26.02
2022-11-27T06:23:58.095Z,22.33
2022-11-27T06:26:28.594Z,21.33
2022-11-27T06:28:56.907Z,20.00
2022-11-27T06:31:26.574Z,24.05
2022-11-27T06:33:54.897Z,19.42
2022-11-27T06:36:28.294Z,22.60
2022-11-27T06:38:55.278Z,20.45
2022-11-27T06:41:24.650Z,23.65
2022-11-27T06:43:51.781Z,23.83
2022-11-27T06:46:20.682Z,23.38
2022-11-27T06:48:49.078Z,18.55
2022-11-27T06:51:27.567Z,18.63
2022-11-27T06:53:54.718Z,18.30
2022-11-27T06:56:24.712Z,17.88
2022-11-27T06:58:53.666Z,20.45
2022-11-27T07:01:21.332Z,16.98
2022-11-27T07:03:48.439Z,19.10
2022-11-27T07:06:18.464Z,20.67
2022-11-27T07:08:45.530Z,19.95
2022-11-27T07:11:14.836Z,24.45
2022-11-27T07:13:42.050Z,21.33
2022-11-27T07:16:10.937Z,18.02
2022-11-27T07:18:41.367Z,22.73
2022-11-27T07:21:10.263Z,22.77
2022-11-27T07:23:38.254Z,19.02
2022-11-27T07:26:06.861Z,19.35
2022-11-27T07:28:33.711Z,22.25
2022-11-27T07:31:00.670Z,40.45
2022-11-27T07:33:27.956Z,31.85
2022-11-27T07:36:03.764Z,19.30
2022-11-27T07:38:30.804Z,19.05
2022-11-27T07:41:01.838Z,19.33
2022-11-27T07:43:29.594Z,15.35
2022-11-27T07:45:57.199Z,17.50
2022-11-27T07:48:24.436Z,19.08
2022-11-27T07:50:51.412Z,14.20
2022-11-27T07:53:18.973Z,13.65
2022-11-27T07:55:46.068Z,13.55
2022-11-27T07:58:12.899Z,13.82
2022-11-27T08:00:39.835Z,14.40
2022-11-27T08:03:07.125Z,12.18
2022-11-27T08:05:35.620Z,13.10
2022-11-27T08:08:04.393Z,10.77
2022-11-27T08:10:34.714Z,11.43
2022-11-27T08:13:01.560Z,13.95
2022-11-27T08:15:28.374Z,14.05
2022-11-27T08:17:55.221Z,13.90
2022-11-27T08:20:22.304Z,11.55
2022-11-27T08:22:49.461Z,12.10
2022-11-27T08:25:16.814Z,11.60
2022-11-27T08:27:44.162Z,12.82
2022-11-27T08:30:11.238Z,18.00
2022-11-27T08:32:42.841Z,9.18
2022-11-27T08:35:11.591Z,11.45
2022-11-27T08:37:38.657Z,10.70
2022-11-27T08:40:06.197Z,9.05
2022-11-27T08:42:33.054Z,10.20
2022-11-27T08:44:59.909Z,11.93
2022-11-27T08:47:26.668Z,10.95
2022-11-27T08:49:53.614Z,11.10
2022-11-27T08:52:21.270Z,10.27
2022-11-27T08:54:50.900Z,7.40
2022-11-27T08:57:21.760Z,11.93
2022-11-27T08:59:48.764Z,12.30
2022-11-27T09:02:15.548Z,10.05
2022-11-27T09:04:42.646Z,9.15
2022-11-27T09:07:12.429Z,8.45
2022-11-27T09:09:39.450Z,10.00
2022-11-27T09:12:06.501Z,9.85
2022-11-27T09:14:33.272Z,7.78
2022-11-27T09:17:00.168Z,9.43
2022-11-27T09:19:27.259Z,6.50
2022-11-27T09:21:54.147Z,9.85
2022-11-27T09:24:20.979Z,8.48
2022-11-27T09:26:47.901Z,8.00
2022-11-27T09:29:14.739Z,7.60
2022-11-27T09:31:41.607Z,11.05
2022-11-27T09:34:08.504Z,8.02
2022-11-27T09:36:35.593Z,8.57
2022-11-27T09:39:03.644Z,10.90
2022-11-27T09:41:51.165Z,10.43
2022-11-27T09:44:20.902Z,13.32
2022-11-27T09:46:49.434Z,13.52
2022-11-27T09:49:41.536Z,14.63
2022-11-27T09:52:39.940Z,16.05
2022-11-27T09:55:23.970Z,15.80
2022-11-27T09:58:01.576Z,19.02
2022-11-27T10:00:28.654Z,14.05
2022-11-27T10:02:55.654Z,13.27
2022-11-27T10:05:25.821Z,15.88
2022-11-27T10:08:14.145Z,16.27
2022-11-27T10:10:52.905Z,12.50
2022-11-27T10:13:39.048Z,10.98
2022-11-27T10:16:23.944Z,10.15
2022-11-27T10:19:03.286Z,9.68
2022-11-27T10:21:45.709Z,11.95
2022-11-27T10:24:12.430Z,11.20
2022-11-27T10:26:47.979Z,10.27
2022-11-27T10:29:14.826Z,10.65
2022-11-27T10:32:53.498Z,9.25
2022-11-27T10:35:21.847Z,9.82
2022-11-27T10:38:22.386Z,10.20
2022-11-27T10:40:57.804Z,10.80
2022-11-27T10:43:26.464Z,12.23
2022-11-27T10:45:56.138Z,12.90
2022-11-27T10:48:24.030Z,11.60
2022-11-27T10:50:51.416Z,11.20
2022-11-27T10:53:29.539Z,13.27
2022-11-27T10:56:02.274Z,12.02
2022-11-27T10:58:34.260Z,10.90
2022-11-27T11:01:16.864Z,16.10
2022-11-27T11:03:43.842Z,12.90
2022-11-27T11:06:24.402Z,16.23
2022-11-27T11:09:25.614Z,13.43
2022-11-27T11:11:52.710Z,15.52
2022-11-27T11:14:22.859Z,15.00
2022-11-27T11:16:50.978Z,14.88
2022-11-27T11:19:32.937Z,16.10
2022-11-27T11:22:04.336Z,16.42
2022-11-27T11:24:33.430Z,14.98
2022-11-27T11:27:05.941Z,13.45
2022-11-27T11:29:35.254Z,15.38
2022-11-27T11:32:07.851Z,14.93
2022-11-27T11:34:35.146Z,12.90
2022-11-27T11:37:08.742Z,15.27
2022-11-27T11:39:49.153Z,14.75
2022-11-27T11:42:25.993Z,13.45
2022-11-27T11:45:07.321Z,15.48
2022-11-27T11:47:34.415Z,13.45
2022-11-27T11:50:01.591Z,15.65
2022-11-27T11:52:37.459Z,16.65
2022-11-27T11:55:12.355Z,14.73
2022-11-27T11:58:26.352Z,17.30
2022-11-27T12:01:26.042Z,14.15
2022-11-27T12:03:57.654Z,15.93
2022-11-27T12:06:51.411Z,16.10
2022-11-27T12:09:35.790Z,22.35
2022-11-27T12:12:39.937Z,18.13
2022-11-27T12:15:27.969Z,22.02
2022-11-27T12:18:05.331Z,17.70
2022-11-27T12:20:48.989Z,17.95
2022-11-27T12:23:30.816Z,13.88
2022-11-27T12:26:24.524Z,17.27
2022-11-27T12:29:15.323Z,17.88
2022-11-27T12:31:52.430Z,15.23
2022-11-27T12:34:58.074Z,15.07
2022-11-27T12:37:52.388Z,18.92
2022-11-27T12:40:44.113Z,17.25
2022-11-27T12:43:27.727Z,20.60
2022-11-27T12:46:12.299Z,18.23
2022-11-27T12:48:53.729Z,16.25
2022-11-27T12:51:37.519Z,16.58
2022-11-27T12:54:14.274Z,19.10
2022-11-27T12:56:45.960Z,18.75
2022-11-27T12:59:35.057Z,19.52
2022-11-27T13:02:11.076Z,18.80
2022-11-27T13:04:54.125Z,17.27
2022-11-27T13:07:38.874Z,17.70
2022-11-27T13:10:20.457Z,17.55
2022-11-27T13:13:16.439Z,18.33
2022-11-27T13:15:54.790Z,18.55
2022-11-27T13:18:38.598Z,18.55
2022-11-27T13:21:12.988Z,19.23
2022-11-27T13:23:39.840Z,19.52
2022-11-27T13:26:15.226Z,20.52
2022-11-27T13:28:44.000Z,18.67
2022-11-27T13:31:22.851Z,20.45
2022-11-27T13:33:52.221Z,20.35
2022-11-27T13:36:36.027Z,18.25
2022-11-27T13:39:03.686Z,21.00
2022-11-27T13:41:40.894Z,18.63
2022-11-27T13:44:26.172Z,19.45
2022-11-27T13:46:56.298Z,21.85
2022-11-27T13:49:36.180Z,17.85
2022-11-27T13:52:16.497Z,22.33
2022-11-27T13:54:58.120Z,22.33
2022-11-27T13:57:26.452Z,24.05
2022-11-27T14:00:12.828Z,23.58
2022-11-27T14:02:45.524Z,24.45
2022-11-27T14:05:15.126Z,19.67
2022-11-27T14:07:45.543Z,20.90
2022-11-27T14:10:28.682Z,22.70
2022-11-27T14:13:04.921Z,20.85
2022-11-27T14:15:35.433Z,23.42
2022-11-27T14:18:08.554Z,25.70
2022-11-27T14:20:45.001Z,23.63
2022-11-27T14:23:13.614Z,23.10
2022-11-27T14:25:41.314Z,24.50
2022-11-27T14:28:22.044Z,24.58
2022-11-27T14:30:55.305Z,24.98
2022-11-27T14:33:59.769Z,26.27
2022-11-27T14:36:26.368Z,24.15
2022-11-27T14:38:53.912Z,21.70
2022-11-27T14:41:23.959Z,20.95
2022-11-27T14:44:04.469Z,21.95
2022-11-27T14:46:33.714Z,21.33
2022-11-27T14:49:00.728Z,22.92
2022-11-27T14:51:32.813Z,24.13
2022-11-27T14:54:11.202Z,27.20
2022-11-27T14:56:41.716Z,23.63
2022-11-27T14:59:20.747Z,23.27
2022-11-27T15:01:59.006Z,24.48
2022-11-27T15:04:29.351Z,24.55
2022-11-27T15:06:58.225Z,22.55
2022-11-27T15:09:43.394Z,26.38
2022-11-27T15:12:46.976Z,26.40
2022-11-27T15:15:28.492Z,23.25
2022-11-27T15:18:05.630Z,25.00
2022-11-27T15:20:42.353Z,24.00
2022-11-27T15:23:24.483Z,24.67
2022-11-27T15:26:16.871Z,26.80
2022-11-27T15:28:57.244Z,24.50
2022-11-27T15:31:32.918Z,27.85
2022-11-27T15:34:05.974Z,28.13
2022-11-27T15:36:39.352Z,33.83
2022-11-27T15:39:38.288Z,34.05
2022-11-27T15:42:09.664Z,36.65
2022-11-27T15:44:36.759Z,32.42
2022-11-27T15:47:05.330Z,24.08
2022-11-27T15:49:32.781Z,25.73
2022-11-27T15:51:59.737Z,28.17
2022-11-27T15:54:26.757Z,24.98
2022-11-27T15:56:54.040Z,25.33
2022-11-27T15:59:21.219Z,26.13
2022-11-27T16:01:49.890Z,32.95
2022-11-27T16:04:17.116Z,29.83
2022-11-27T16:06:44.112Z,31.42
2022-11-27T16:09:10.885Z,28.38
2022-11-27T16:11:38.137Z,31.73
2022-11-27T16:14:05.126Z,29.52
2022-11-27T16:16:32.407Z,28.05
2022-11-27T16:19:00.829Z,28.55
2022-11-27T16:21:29.894Z,29.35
2022-11-27T16:24:02.216Z,30.75
2022-11-27T16:26:29.552Z,26.98
2022-11-27T16:28:56.497Z,32.97
2022-11-27T16:31:23.612Z,37.75
2022-11-27T16:33:50.786Z,32.58
2022-11-27T16:36:21.408Z,31.05
2022-11-27T16:38:49.090Z,30.88
2022-11-27T16:41:19.156Z,30.65
2022-11-27T16:43:49.839Z,27.63
2022-11-27T16:46:20.225Z,27.15
2022-11-27T16:48:49.606Z,26.83
2022-11-27T16:51:20.432Z,27.27
2022-11-27T16:53:50.339Z,28.05
2022-11-27T16:56:23.835Z,27.77
2022-11-27T16:58:56.734Z,25.90
2022-11-27T17:01:32.360Z,30.27
2022-11-27T17:03:59.672Z,30.83
2022-11-27T17:06:29.058Z,29.42
2022-11-27T17:08:57.672Z,28.15
2022-11-27T17:11:26.825Z,29.00
2022-11-27T17:13:57.523Z,31.50
2022-11-27T17:16:24.904Z,28.33
2022-11-27T17:18:52.941Z,29.08
2022-11-27T17:21:31.991Z,26.40
2022-11-27T17:24:01.744Z,27.05
2022-11-27T17:26:35.205Z,26.42
2022-11-27T17:29:03.465Z,26.73
2022-11-27T17:31:37.032Z,26.92
2022-11-27T17:34:06.501Z,22.38
2022-11-27T17:36:37.124Z,24.48
2022-11-27T17:39:06.470Z,24.35
2022-11-27T17:41:33.851Z,28.60
2022-11-27T17:44:02.807Z,23.15
2022-11-27T17:46:30.448Z,24.40
2022-11-27T17:49:01.499Z,22.08
2022-11-27T17:51:31.302Z,22.30
2022-11-27T17:54:01.365Z,24.20
2022-11-27T17:56:32.285Z,22.13
2022-11-27T17:58:59.945Z,25.13
2022-11-27T18:01:29.237Z,24.65
2022-11-27T18:03:59.853Z,23.90
2022-11-27T18:06:29.220Z,23.63
2022-11-27T18:08:58.144Z,26.85
2022-11-27T18:11:28.206Z,26.58
2022-11-27T18:13:58.213Z,27.05
2022-11-27T18:16:31.650Z,24.50
2022-11-27T18:18:59.679Z,26.27
2022-11-27T18:21:28.482Z,28.42
2022-11-27T18:29:30.363Z,25.17
2022-11-27T18:31:57.225Z,25.50
2022-11-27T18:34:24.068Z,23.15
2022-11-27T18:36:50.884Z,28.05
2022-11-27T18:39:17.744Z,25.85
2022-11-27T18:41:44.606Z,28.90
2022-11-27T18:44:11.957Z,26.52
2022-11-27T18:46:39.842Z,24.50
2022-11-27T18:49:07.728Z,27.45
2022-11-27T18:51:34.721Z,25.35
2022-11-27T18:54:02.192Z,28.00
2022-11-27T18:56:31.360Z,30.52
2022-11-27T18:59:04.687Z,30.67
2022-11-27T19:01:41.282Z,25.92
2022-11-27T19:04:09.380Z,23.33
2022-11-27T19:06:37.588Z,21.35
2022-11-27T19:09:06.340Z,21.92
2022-11-27T19:11:34.822Z,21.75
2022-11-27T19:14:04.419Z,24.05
2022-11-27T19:16:44.165Z,24.17
2022-11-27T19:19:52.236Z,22.35
2022-11-27T19:22:00.955Z,21.33
2022-11-27T19:24:27.801Z,26.52
2022-11-27T19:26:55.126Z,32.92
2022-11-27T19:29:22.848Z,24.67
2022-11-27T19:31:50.043Z,25.98
2022-11-27T19:34:16.921Z,25.65
2022-11-27T19:36:44.675Z,28.50
2022-11-27T19:39:14.377Z,25.75
2022-11-27T19:41:43.222Z,20.80
2022-11-27T19:44:12.295Z,21.50
2022-11-27T19:46:40.333Z,21.13
2022-11-27T19:49:14.669Z,21.63
2022-11-27T19:51:41.977Z,16.58
2022-11-27T19:54:13.107Z,18.83
2022-11-27T19:56:42.414Z,23.88
2022-11-27T19:59:10.497Z,18.67
2022-11-27T20:01:40.263Z,19.02
2022-11-27T20:04:09.737Z,19.83
2022-11-27T20:06:36.689Z,19.70
2022-11-27T20:09:05.208Z,16.15
2022-11-27T20:11:35.191Z,17.02
2022-11-27T20:14:05.130Z,19.30
2022-11-27T20:16:34.003Z,18.02
2022-11-27T20:19:02.394Z,17.88
2022-11-27T20:21:29.278Z,17.40
2022-11-27T20:23:57.608Z,17.85
2022-11-27T20:26:27.230Z,16.50
2022-11-27T20:28:54.977Z,16.13
2022-11-27T20:31:24.934Z,16.70
2022-11-27T20:33:55.346Z,14.05
2022-11-27T20:36:23.699Z,15.75
2022-11-27T20:38:52.328Z,14.57
2022-11-27T20:41:20.766Z,17.27
2022-11-27T20:43:53.193Z,14.23
2022-11-27T20:46:20.261Z,14.02
2022-11-27T20:48:49.127Z,13.85
2022-11-27T20:51:19.351Z,14.63
2022-11-27T20:53:47.981Z,15.35
2022-11-27T20:56:17.811Z,14.25
2022-11-27T20:58:46.365Z,15.38
2022-11-27T21:01:21.543Z,15.02
2022-11-27T21:03:50.230Z,14.82
2022-11-27T21:06:23.933Z,13.82
2022-11-27T21:08:51.108Z,16.30
2022-11-27T21:11:27.049Z,15.52
2022-11-27T21:13:56.522Z,12.50
2022-11-27T21:16:25.463Z,14.27
2022-11-27T21:18:53.830Z,15.43
2022-11-27T21:21:21.393Z,12.45
2022-11-27T21:23:49.099Z,17.80
2022-11-27T21:26:18.546Z,13.10
2022-11-27T21:28:46.663Z,13.80
2022-11-27T21:31:19.297Z,13.05
2022-11-27T21:34:06.120Z,13.45
2022-11-27T21:36:36.024Z,16.67
2022-11-27T21:39:08.120Z,17.50
2022-11-27T21:41:36.003Z,13.00
2022-11-27T21:44:05.497Z,14.63
2022-11-27T21:46:33.618Z,13.70
2022-11-27T21:49:04.318Z,14.15
2022-11-27T21:51:31.189Z,13.88
2022-11-27T21:53:59.075Z,14.30
2022-11-27T21:56:29.046Z,13.32
2022-11-27T21:58:56.302Z,16.30
2022-11-27T22:01:25.110Z,15.30
2022-11-27T22:03:56.591Z,14.88
2022-11-27T22:06:26.931Z,12.23
2022-11-27T22:08:56.705Z,16.00
2022-11-27T22:11:30.764Z,12.98
2022-11-27T22:14:07.041Z,14.32
2022-11-27T22:16:42.799Z,13.85
2022-11-27T22:19:11.492Z,12.70
2022-11-27T22:21:38.495Z,14.13
2022-11-27T22:24:05.469Z,10.48
2022-11-27T22:26:32.559Z,10.85
2022-11-27T22:28:59.653Z,11.45
2022-11-27T22:31:33.852Z,12.00
2022-11-27T22:34:00.856Z,11.73
2022-11-27T22:36:31.226Z,12.40
2022-11-27T22:39:00.870Z,11.80
2022-11-27T22:41:29.929Z,11.05
2022-11-27T22:44:00.232Z,12.13
2022-11-27T22:46:32.597Z,10.85
2022-11-27T22:49:01.007Z,11.45
2022-11-27T22:51:29.930Z,11.90
2022-11-27T22:53:58.000Z,12.23
2022-11-27T22:56:25.899Z,12.68
2022-11-27T22:59:11.313Z,12.85
2022-11-27T23:01:40.893Z,11.95
2022-11-27T23:04:07.854Z,12.80
2022-11-27T23:06:34.745Z,15.35
2022-11-27T23:09:01.714Z,16.60
2022-11-27T23:11:29.068Z,13.68
2022-11-27T23:13:57.673Z,11.57
2022-11-27T23:16:25.160Z,11.23
2022-11-27T23:18:51.989Z,11.15
2022-11-27T23:21:22.194Z,13.57
2022-11-27T23:23:49.413Z,10.93
2022-11-27T23:26:18.820Z,11.77
2022-11-27T23:28:47.731Z,12.70
2022-11-27T23:31:33.178Z,13.30
2022-11-27T23:34:01.892Z,12.25
2022-11-27T23:36:30.549Z,11.20
2022-11-27T23:39:00.656Z,12.35
2022-11-27T23:41:27.810Z,11.98
2022-11-27T23:43:55.172Z,12.65
2022-11-27T23:46:26.349Z,12.68
2022-11-27T23:48:58.394Z,13.73
2022-11-27T23:51:29.354Z,11.65
2022-11-27T23:53:56.584Z,15.25
2022-11-27T23:56:25.887Z,12.63
2022-11-27T23:58:55.185Z,13.50
